createdAt,value
2019-06-20T00:01:23.673Z,98.50
2019-06-20T00:03:49.816Z,98.60
2019-06-20T00:06:15.973Z,98.60
2019-06-20T00:08:42.142Z,98.60
2019-06-20T00:11:08.296Z,98.60
2019-06-20T00:13:34.464Z,98.50
2019-06-20T00:16:01.911Z,98.60
2019-06-20T00:18:28.065Z,98.50
2019-06-20T00:20:54.212Z,98.60
2019-06-20T00:23:20.357Z,98.60
2019-06-20T00:25:46.579Z,98.60
2019-06-20T00:28:12.731Z,98.60
2019-06-20T00:30:39.299Z,98.90
2019-06-20T00:33:05.441Z,98.90
2019-06-20T00:35:31.608Z,98.50
2019-06-20T00:37:57.762Z,98.00
2019-06-20T00:40:24.061Z,98.50
2019-06-20T00:42:50.203Z,98.30
2019-06-20T00:45:16.857Z,98.60
2019-06-20T00:47:43.015Z,98.50
2019-06-20T00:50:09.365Z,98.50
2019-06-20T00:52:35.533Z,98.50
2019-06-20T00:55:04.287Z,98.50
2019-06-20T00:57:30.440Z,98.50
2019-06-20T00:59:56.595Z,98.50
2019-06-20T01:02:22.761Z,98.40
2019-06-20T01:04:48.923Z,98.30
2019-06-20T01:07:15.189Z,98.00
2019-06-20T01:09:41.416Z,98.10
2019-06-20T01:12:07.583Z,98.00
2019-06-20T01:14:34.928Z,98.00
2019-06-20T01:17:01.196Z,97.90
2019-06-20T01:19:27.379Z,98.00
2019-06-20T01:21:53.601Z,98.00
2019-06-20T01:24:19.749Z,98.00
2019-06-20T01:26:45.904Z,98.20
2019-06-20T01:29:12.076Z,98.30
2019-06-20T01:31:38.337Z,98.10
2019-06-20T01:34:04.499Z,98.30
2019-06-20T01:36:30.666Z,98.10
2019-06-20T01:38:56.813Z,98.10
2019-06-20T01:41:22.986Z,98.10
2019-06-20T01:43:50.935Z,98.20
2019-06-20T01:46:17.188Z,98.20
2019-06-20T01:48:43.341Z,98.10
2019-06-20T01:51:09.511Z,98.20
2019-06-20T01:53:35.659Z,98.20
2019-06-20T01:56:01.832Z,98.00
2019-06-20T01:58:27.986Z,97.50
2019-06-20T02:00:54.277Z,97.60
2019-06-20T02:03:20.814Z,97.90
2019-06-20T02:05:46.967Z,98.10
2019-06-20T02:08:13.622Z,98.30
2019-06-20T02:10:39.767Z,98.10
2019-06-20T02:13:06.019Z,97.60
2019-06-20T02:15:32.160Z,97.50
2019-06-20T02:17:58.321Z,97.10
2019-06-20T02:20:33.893Z,97.50
2019-06-20T02:23:00.068Z,97.80
2019-06-20T02:25:26.303Z,97.60
2019-06-20T02:27:52.492Z,97.70
2019-06-20T02:30:18.721Z,97.50
2019-06-20T02:32:44.877Z,97.70
2019-06-20T02:35:11.117Z,98.20
2019-06-20T02:37:37.284Z,98.50
2019-06-20T02:40:06.491Z,97.80
2019-06-20T02:42:32.737Z,97.90
2019-06-20T02:44:58.877Z,98.00
2019-06-20T02:47:25.038Z,98.00
2019-06-20T02:49:51.185Z,98.10
2019-06-20T02:52:17.345Z,98.50
2019-06-20T02:54:43.484Z,98.60
2019-06-20T02:57:09.643Z,98.00
2019-06-20T02:59:35.784Z,98.00
2019-06-20T03:02:02.045Z,98.10
2019-06-20T03:04:29.193Z,98.10
2019-06-20T03:06:55.373Z,97.80
2019-06-20T03:09:21.520Z,97.80
2019-06-20T03:11:47.804Z,97.90
2019-06-20T03:14:14.043Z,98.10
2019-06-20T03:16:40.288Z,98.30
2019-06-20T03:19:06.462Z,97.80
2019-06-20T03:21:32.684Z,97.50
2019-06-20T03:23:58.849Z,97.70
2019-06-20T03:26:24.996Z,97.80
2019-06-20T03:28:51.160Z,97.90
2019-06-20T03:31:17.322Z,97.80
2019-06-20T03:33:43.479Z,97.80
2019-06-20T03:36:09.729Z,97.90
2019-06-20T03:38:35.885Z,98.00
2019-06-20T03:41:02.029Z,98.00
2019-06-20T03:43:28.209Z,98.00
2019-06-20T03:45:54.360Z,98.00
2019-06-20T03:48:20.521Z,98.00
2019-06-20T03:50:46.756Z,97.80
2019-06-20T03:53:13.930Z,97.80
2019-06-20T03:55:40.077Z,97.70
2019-06-20T03:58:06.341Z,97.70
2019-06-20T04:00:33.997Z,97.40
2019-06-20T04:03:00.458Z,97.20
2019-06-20T04:05:26.605Z,96.90
2019-06-20T04:07:52.764Z,97.00
2019-06-20T04:10:18.912Z,97.20
2019-06-20T04:12:45.079Z,96.90
2019-06-20T04:15:18.965Z,96.90
2019-06-20T04:17:39.369Z,97.10
2019-06-20T04:20:05.728Z,97.20
2019-06-20T04:22:31.913Z,97.00
2019-06-20T04:24:58.055Z,97.10
2019-06-20T04:27:24.196Z,96.80
2019-06-20T04:29:50.412Z,96.70
2019-06-20T04:32:16.567Z,97.00
2019-06-20T04:34:42.720Z,96.70
2019-06-20T04:37:08.852Z,96.60
2019-06-20T04:39:35.016Z,96.20
2019-06-20T04:42:01.162Z,96.20
2019-06-20T04:44:27.304Z,96.20
2019-06-20T04:47:00.893Z,96.30
2019-06-20T04:49:27.061Z,96.00
2019-06-20T04:51:53.221Z,96.00
2019-06-20T04:54:19.381Z,95.90
2019-06-20T04:56:45.570Z,95.80
2019-06-20T04:59:11.781Z,95.80
2019-06-20T05:01:37.934Z,95.50
2019-06-20T05:04:04.084Z,95.70
2019-06-20T05:06:30.235Z,95.70
2019-06-20T05:08:56.391Z,95.80
2019-06-20T05:11:22.537Z,95.30
2019-06-20T05:13:48.706Z,95.40
2019-06-20T05:16:14.847Z,95.40
2019-06-20T05:18:41.097Z,95.50
2019-06-20T05:21:07.266Z,95.40
2019-06-20T05:23:33.430Z,95.00
2019-06-20T05:25:59.568Z,95.20
2019-06-20T05:28:25.948Z,95.50
2019-06-20T05:30:52.106Z,95.30
2019-06-20T05:33:18.285Z,94.90
2019-06-20T05:35:44.431Z,94.80
2019-06-20T05:38:10.588Z,94.70
2019-06-20T05:40:37.295Z,94.70
2019-06-20T05:43:03.703Z,94.60
2019-06-20T05:45:29.876Z,94.30
2019-06-20T05:47:56.027Z,94.40
2019-06-20T05:50:22.180Z,94.30
2019-06-20T05:52:48.330Z,94.10
2019-06-20T05:55:15.410Z,94.60
2019-06-20T05:57:41.626Z,94.20
2019-06-20T06:00:11.453Z,93.70
2019-06-20T06:02:37.900Z,93.80
2019-06-20T06:05:04.660Z,94.40
2019-06-20T06:07:30.832Z,94.20
2019-06-20T06:09:57.100Z,94.40
2019-06-20T06:12:23.316Z,94.40
2019-06-20T06:14:49.473Z,94.10
2019-06-20T06:17:15.630Z,94.10
2019-06-20T06:19:41.784Z,93.90
2019-06-20T06:22:07.925Z,93.90
2019-06-20T06:24:34.080Z,94.10
2019-06-20T06:27:00.401Z,94.50
2019-06-20T06:29:26.634Z,93.80
2019-06-20T06:31:52.805Z,94.30
2019-06-20T06:34:21.963Z,94.70
2019-06-20T06:36:47.004Z,93.80
2019-06-20T06:39:13.175Z,93.50
2019-06-20T06:41:39.319Z,93.40
2019-06-20T06:44:08.352Z,92.70
2019-06-20T06:46:43.686Z,91.70
2019-06-20T06:49:01.705Z,91.50
2019-06-20T06:51:28.949Z,91.80
2019-06-20T06:53:55.113Z,91.50
2019-06-20T06:56:21.261Z,90.90
2019-06-20T06:58:48.414Z,91.20
2019-06-20T07:01:14.570Z,91.90
2019-06-20T07:03:40.717Z,91.70
2019-06-20T07:06:06.896Z,90.40
2019-06-20T07:08:33.045Z,91.10
2019-06-20T07:10:59.225Z,91.40
2019-06-20T07:13:25.362Z,90.70
2019-06-20T07:15:51.531Z,88.60
2019-06-20T07:18:18.760Z,88.60
2019-06-20T07:20:44.912Z,88.80
2019-06-20T07:23:11.059Z,88.80
2019-06-20T07:25:37.217Z,89.30
2019-06-20T07:28:03.366Z,87.90
2019-06-20T07:30:29.634Z,87.70
2019-06-20T07:32:55.879Z,86.00
2019-06-20T07:35:22.053Z,88.00
2019-06-20T07:37:48.210Z,89.00
2019-06-20T07:40:16.356Z,88.70
2019-06-20T07:42:42.514Z,86.90
2019-06-20T07:45:09.563Z,87.40
2019-06-20T07:47:36.005Z,86.20
2019-06-20T07:50:04.871Z,87.40
2019-06-20T07:52:31.012Z,85.00
2019-06-20T07:54:57.188Z,80.80
2019-06-20T07:57:23.336Z,80.30
2019-06-20T07:59:49.488Z,80.50
2019-06-20T08:02:15.755Z,78.40
2019-06-20T08:04:41.909Z,77.80
2019-06-20T08:07:08.064Z,78.10
2019-06-20T08:09:44.790Z,77.10
2019-06-20T08:12:02.480Z,77.50
2019-06-20T08:14:28.617Z,77.60
2019-06-20T08:16:54.772Z,77.20
2019-06-20T08:19:20.938Z,78.40
2019-06-20T08:21:47.107Z,79.10
2019-06-20T08:24:13.353Z,80.00
2019-06-20T08:26:39.629Z,80.20
2019-06-20T08:29:19.737Z,80.50
2019-06-20T08:31:34.065Z,80.30
2019-06-20T08:34:00.500Z,81.00
2019-06-20T08:36:26.676Z,80.00
2019-06-20T08:38:52.809Z,77.80
2019-06-20T08:41:19.198Z,78.20
2019-06-20T08:43:45.523Z,75.60
2019-06-20T08:46:11.730Z,74.50
2019-06-20T08:48:37.873Z,74.70
2019-06-20T08:51:04.514Z,74.00
2019-06-20T08:53:30.777Z,73.10
2019-06-20T08:55:58.138Z,71.30
2019-06-20T08:58:24.976Z,69.50
2019-06-20T09:00:51.147Z,69.80
2019-06-20T09:03:17.380Z,70.00
2019-06-20T09:05:43.534Z,72.80
2019-06-20T09:08:11.487Z,75.40
2019-06-20T09:10:39.335Z,78.50
2019-06-20T09:13:06.433Z,78.40
2019-06-20T09:15:33.045Z,76.40
2019-06-20T09:17:59.205Z,76.20
2019-06-20T09:20:25.544Z,76.00
2019-06-20T09:22:52.317Z,76.00
2019-06-20T09:25:19.757Z,78.40
2019-06-20T09:27:45.914Z,85.10
2019-06-20T09:30:12.735Z,86.20
2019-06-20T09:32:39.289Z,83.30
2019-06-20T09:35:07.933Z,83.30
2019-06-20T09:37:34.098Z,83.00
2019-06-20T09:40:00.246Z,83.00
2019-06-20T09:42:26.404Z,83.70
2019-06-20T09:44:52.668Z,81.80
2019-06-20T09:47:18.931Z,81.60
2019-06-20T09:49:49.041Z,81.60
2019-06-20T09:52:13.220Z,79.50
2019-06-20T09:54:39.370Z,79.00
2019-06-20T09:57:05.581Z,77.70
2019-06-20T09:59:31.729Z,78.00
2019-06-20T10:01:58.828Z,76.40
2019-06-20T10:04:25.167Z,72.30
2019-06-20T10:06:52.296Z,73.40
2019-06-20T10:09:18.599Z,71.50
2019-06-20T10:11:45.286Z,67.60
2019-06-20T10:14:12.908Z,68.70
2019-06-20T10:16:45.767Z,69.50
2019-06-20T10:19:07.147Z,69.40
2019-06-20T10:21:33.297Z,69.30
2019-06-20T10:23:59.448Z,66.40
2019-06-20T10:26:25.605Z,65.70
2019-06-20T10:28:53.048Z,68.10
2019-06-20T10:31:19.325Z,66.40
2019-06-20T10:33:46.842Z,66.10
2019-06-20T10:36:13.128Z,69.60
2019-06-20T10:38:39.286Z,68.40
2019-06-20T10:41:05.525Z,67.70
2019-06-20T10:43:31.676Z,65.50
2019-06-20T10:45:57.841Z,67.60
2019-06-20T10:48:24.002Z,67.70
2019-06-20T10:50:50.140Z,69.20
2019-06-20T10:53:16.400Z,66.90
2019-06-20T10:55:43.328Z,66.20
2019-06-20T10:58:10.036Z,63.70
2019-06-20T11:00:36.258Z,63.00
2019-06-20T11:03:02.749Z,64.00
2019-06-20T11:05:28.967Z,63.90
2019-06-20T11:07:55.123Z,65.30
2019-06-20T11:10:21.679Z,67.70
2019-06-20T11:12:53.826Z,63.20
2019-06-20T11:15:16.678Z,64.40
2019-06-20T11:17:44.061Z,64.70
2019-06-20T11:20:10.896Z,63.20
2019-06-20T11:22:38.430Z,63.60
2019-06-20T11:25:05.488Z,63.00
2019-06-20T11:27:31.671Z,61.30
2019-06-20T11:29:57.899Z,58.20
2019-06-20T11:32:24.090Z,59.30
2019-06-20T11:34:50.224Z,60.80
2019-06-20T11:37:16.376Z,62.20
2019-06-20T11:39:43.230Z,61.60
2019-06-20T11:42:09.491Z,65.60
2019-06-20T11:44:37.008Z,64.00
2019-06-20T11:47:03.323Z,64.20
2019-06-20T11:49:29.541Z,65.80
2019-06-20T11:51:55.692Z,68.10
2019-06-20T11:54:21.866Z,66.60
2019-06-20T11:56:48.012Z,63.30
2019-06-20T11:59:14.187Z,63.90
2019-06-20T12:01:41.320Z,62.10
2019-06-20T12:04:09.510Z,59.80
2019-06-20T12:06:36.739Z,59.40
2019-06-20T12:09:05.431Z,60.20
2019-06-20T12:11:31.857Z,60.70
2019-06-20T12:13:58.025Z,60.80
2019-06-20T12:16:24.164Z,60.10
2019-06-20T12:18:50.332Z,60.10
2019-06-20T12:21:16.476Z,59.40
2019-06-20T12:23:42.629Z,59.20
2019-06-20T12:26:08.772Z,59.40
2019-06-20T12:28:34.921Z,58.00
2019-06-20T12:31:01.080Z,57.20
2019-06-20T12:33:27.232Z,58.30
2019-06-20T12:35:53.380Z,59.30
2019-06-20T12:38:19.540Z,57.80
2019-06-20T12:40:46.206Z,59.10
2019-06-20T12:43:12.569Z,59.50
2019-06-20T12:45:40.030Z,58.60
2019-06-20T12:48:07.829Z,58.30
2019-06-20T12:50:34.003Z,58.40
2019-06-20T12:53:00.150Z,55.10
2019-06-20T12:55:27.347Z,55.30
2019-06-20T12:57:53.571Z,58.70
2019-06-20T13:00:20.690Z,58.30
2019-06-20T13:02:47.473Z,62.00
2019-06-20T13:05:16.002Z,61.10
2019-06-20T13:07:42.430Z,58.70
2019-06-20T13:10:09.621Z,56.40
2019-06-20T13:12:35.784Z,58.60
2019-06-20T13:15:02.344Z,56.00
2019-06-20T13:17:28.510Z,54.20
2019-06-20T13:19:54.669Z,55.50
2019-06-20T13:22:20.804Z,57.40
2019-06-20T13:24:47.217Z,56.60
2019-06-20T13:27:13.417Z,55.80
2019-06-20T13:29:40.712Z,55.80
2019-06-20T13:32:07.022Z,53.90
2019-06-20T13:34:33.172Z,55.80
2019-06-20T13:36:59.321Z,55.00
2019-06-20T13:39:25.573Z,55.60
2019-06-20T13:41:51.737Z,58.10
2019-06-20T13:44:17.896Z,59.00
2019-06-20T13:46:44.564Z,59.70
2019-06-20T13:49:10.792Z,58.10
2019-06-20T13:51:36.943Z,58.80
2019-06-20T13:54:03.510Z,57.70
2019-06-20T13:56:29.755Z,57.60
2019-06-20T13:58:56.004Z,57.80
2019-06-20T14:01:22.161Z,56.70
2019-06-20T14:03:48.709Z,55.70
2019-06-20T14:06:15.125Z,57.30
2019-06-20T14:08:42.538Z,57.50
2019-06-20T14:11:09.432Z,56.60
2019-06-20T14:13:35.581Z,55.40
2019-06-20T14:16:01.734Z,56.10
2019-06-20T14:18:27.868Z,57.10
2019-06-20T14:20:55.220Z,57.90
2019-06-20T14:23:21.461Z,58.80
2019-06-20T14:25:48.680Z,58.50
2019-06-20T14:28:14.960Z,59.30
2019-06-20T14:30:41.129Z,60.60
2019-06-20T14:33:07.329Z,60.10
2019-06-20T14:35:33.577Z,61.30
2019-06-20T14:37:59.818Z,61.50
2019-06-20T14:40:25.983Z,62.30
2019-06-20T14:42:52.462Z,60.90
2019-06-20T14:45:19.706Z,58.40
2019-06-20T14:47:46.108Z,59.70
2019-06-20T14:50:13.860Z,59.10
2019-06-20T14:52:40.087Z,58.80
2019-06-20T14:55:07.740Z,59.70
2019-06-20T14:57:33.996Z,59.80
2019-06-20T15:00:00.193Z,60.30
2019-06-20T15:02:37.843Z,59.70
2019-06-20T15:04:54.481Z,59.70
2019-06-20T15:07:20.648Z,59.80
2019-06-20T15:09:48.093Z,59.10
2019-06-20T15:12:14.857Z,56.50
2019-06-20T15:14:41.000Z,55.40
2019-06-20T15:17:07.161Z,56.60
2019-06-20T15:19:33.330Z,58.20
2019-06-20T15:21:59.500Z,57.40
2019-06-20T15:24:25.652Z,58.40
2019-06-20T15:26:52.427Z,59.30
2019-06-20T15:29:19.049Z,57.50
2019-06-20T15:31:45.916Z,58.70
2019-06-20T15:34:13.256Z,58.90
2019-06-20T15:36:39.441Z,58.40
2019-06-20T15:39:06.488Z,59.70
2019-06-20T15:41:32.831Z,61.80
2019-06-20T15:43:58.976Z,61.10
2019-06-20T15:46:25.159Z,60.80
2019-06-20T15:48:51.429Z,61.60
2019-06-20T15:51:18.686Z,62.50
2019-06-20T15:53:44.925Z,63.50
2019-06-20T15:56:11.109Z,63.00
2019-06-20T15:58:37.346Z,62.60
2019-06-20T16:01:03.485Z,64.40
2019-06-20T16:03:29.646Z,64.70
2019-06-20T16:05:55.812Z,62.30
2019-06-20T16:08:21.988Z,63.00
2019-06-20T16:10:48.141Z,62.70
2019-06-20T16:13:14.312Z,64.00
2019-06-20T16:15:40.464Z,63.70
2019-06-20T16:18:06.621Z,64.50
2019-06-20T16:20:32.770Z,65.00
2019-06-20T16:22:58.939Z,66.10
2019-06-20T16:25:25.107Z,66.50
2019-06-20T16:27:51.365Z,67.30
2019-06-20T16:30:18.164Z,70.90
2019-06-20T16:32:44.391Z,70.50
2019-06-20T16:35:12.974Z,73.70
2019-06-20T16:37:39.228Z,79.00
2019-06-20T16:40:08.369Z,78.80
2019-06-20T16:42:34.524Z,80.50
2019-06-20T16:45:00.666Z,82.40
2019-06-20T16:47:26.821Z,82.20
2019-06-20T16:49:52.970Z,83.60
2019-06-20T16:52:19.147Z,86.90
2019-06-20T16:54:45.393Z,86.70
2019-06-20T16:57:11.665Z,89.20
2019-06-20T16:59:37.817Z,90.30
2019-06-20T17:02:03.973Z,90.20
2019-06-20T17:04:30.151Z,90.60
2019-06-20T17:06:56.447Z,90.70
2019-06-20T17:09:22.693Z,91.90
2019-06-20T17:11:48.840Z,91.70
2019-06-20T17:14:14.977Z,91.50
2019-06-20T17:16:41.133Z,92.10
2019-06-20T17:19:07.277Z,92.20
2019-06-20T17:21:33.445Z,92.60
2019-06-20T17:23:59.600Z,94.00
2019-06-20T17:26:25.769Z,94.10
2019-06-20T17:28:51.927Z,94.60
2019-06-20T17:31:18.173Z,95.00
2019-06-20T17:33:56.781Z,95.00
2019-06-20T17:36:18.315Z,95.40
2019-06-20T17:38:40.450Z,96.20
2019-06-20T17:41:06.588Z,96.00
2019-06-20T17:43:32.761Z,95.30
2019-06-20T17:45:58.908Z,95.80
2019-06-20T17:48:25.064Z,95.40
2019-06-20T17:50:51.216Z,95.60
2019-06-20T17:53:17.380Z,95.30
2019-06-20T17:55:43.533Z,95.70
2019-06-20T17:58:09.699Z,95.40
2019-06-20T18:00:36.049Z,95.50
2019-06-20T18:03:02.221Z,95.80
2019-06-20T18:05:28.368Z,95.80
2019-06-20T18:07:54.670Z,95.40
2019-06-20T18:10:21.217Z,95.10
2019-06-20T18:12:47.376Z,94.70
2019-06-20T18:15:13.933Z,94.40
2019-06-20T18:17:40.100Z,95.00
2019-06-20T18:20:06.941Z,94.90
2019-06-20T18:22:34.185Z,93.20
2019-06-20T18:25:00.359Z,93.30
2019-06-20T18:27:26.580Z,92.70
2019-06-20T18:29:52.737Z,93.50
2019-06-20T18:32:18.886Z,92.90
2019-06-20T18:35:00.531Z,93.40
2019-06-20T18:37:13.233Z,93.40
2019-06-20T18:39:40.433Z,94.30
2019-06-20T18:42:06.556Z,93.80
2019-06-20T18:44:32.755Z,94.80
2019-06-20T18:46:58.973Z,93.90
2019-06-20T18:49:25.225Z,93.40
2019-06-20T18:51:51.379Z,93.30
2019-06-20T18:54:17.556Z,93.40
2019-06-20T18:56:43.718Z,93.40
2019-06-20T18:59:09.881Z,93.40
2019-06-20T19:01:36.124Z,93.50
2019-06-20T19:04:02.395Z,93.20
2019-06-20T19:06:35.861Z,93.50
2019-06-20T19:08:56.745Z,93.50
2019-06-20T19:11:22.995Z,93.90
2019-06-20T19:13:49.150Z,94.50
2019-06-20T19:16:15.308Z,94.30
2019-06-20T19:18:41.458Z,94.00
2019-06-20T19:21:07.606Z,94.30
2019-06-20T19:23:33.757Z,93.30
2019-06-20T19:25:59.914Z,93.50
2019-06-20T19:28:26.094Z,93.00
2019-06-20T19:30:52.846Z,93.30
2019-06-20T19:33:19.042Z,93.50
2019-06-20T19:35:45.398Z,93.50
2019-06-20T19:38:11.726Z,93.60
2019-06-20T19:40:46.601Z,94.10
2019-06-20T19:43:12.745Z,93.00
2019-06-20T19:45:39.913Z,93.90
2019-06-20T19:48:06.048Z,93.30
2019-06-20T19:50:32.207Z,93.60
2019-06-20T19:52:58.507Z,93.60
2019-06-20T19:55:24.831Z,93.60
2019-06-20T19:57:50.980Z,94.00
2019-06-20T20:00:18.144Z,94.70
2019-06-20T20:02:44.295Z,94.40
2019-06-20T20:05:18.915Z,95.00
2019-06-20T20:07:38.715Z,94.90
2019-06-20T20:10:07.366Z,95.10
2019-06-20T20:12:33.618Z,95.90
2019-06-20T20:15:00.757Z,95.70
2019-06-20T20:17:26.901Z,95.50
2019-06-20T20:19:53.052Z,95.80
2019-06-20T20:22:19.188Z,95.00
2019-06-20T20:24:45.353Z,95.20
2019-06-20T20:27:11.496Z,95.00
2019-06-20T20:29:37.663Z,95.20
2019-06-20T20:32:04.615Z,95.40
2019-06-20T20:34:30.767Z,95.30
2019-06-20T20:36:56.917Z,95.10
2019-06-20T20:39:23.085Z,95.30
2019-06-20T20:41:49.242Z,94.90
2019-06-20T20:44:15.500Z,94.70
2019-06-20T20:46:41.636Z,94.70
2019-06-20T20:49:07.776Z,94.80
2019-06-20T20:51:33.991Z,94.70
2019-06-20T20:54:00.381Z,94.40
2019-06-20T20:56:26.540Z,94.30
2019-06-20T20:58:52.688Z,94.20
2019-06-20T21:01:29.229Z,94.20
2019-06-20T21:03:55.394Z,94.90
2019-06-20T21:06:21.577Z,95.10
2019-06-20T21:08:47.718Z,94.70
2019-06-20T21:11:14.180Z,94.30
2019-06-20T21:13:40.319Z,94.40
2019-06-20T21:16:06.573Z,94.50
2019-06-20T21:18:32.720Z,94.20
2019-06-20T21:20:58.882Z,94.40
2019-06-20T21:23:25.029Z,94.80
2019-06-20T21:25:51.195Z,95.00
2019-06-20T21:28:17.349Z,95.20
2019-06-20T21:30:43.510Z,95.00
2019-06-20T21:33:09.768Z,95.00
2019-06-20T21:35:35.945Z,95.00
2019-06-20T21:38:02.098Z,95.10
2019-06-20T21:40:28.261Z,95.20
2019-06-20T21:42:54.405Z,95.40
2019-06-20T21:45:20.658Z,95.70
2019-06-20T21:47:46.797Z,96.20
2019-06-20T21:50:13.353Z,95.80
2019-06-20T21:52:39.605Z,96.10
2019-06-20T21:55:06.411Z,96.10
2019-06-20T21:57:32.548Z,96.00
2019-06-20T21:59:58.688Z,95.90
2019-06-20T22:02:24.858Z,95.90
2019-06-20T22:04:54.558Z,95.70
2019-06-20T22:07:19.076Z,95.90
2019-06-20T22:09:45.228Z,96.00
2019-06-20T22:12:11.390Z,96.10
2019-06-20T22:14:37.806Z,95.90
2019-06-20T22:17:03.956Z,96.20
2019-06-20T22:19:30.096Z,96.20
2019-06-20T22:21:56.262Z,96.50
2019-06-20T22:24:22.399Z,96.70
2019-06-20T22:26:48.552Z,96.60
2019-06-20T22:29:14.705Z,96.80
2019-06-20T22:31:41.175Z,97.00
2019-06-20T22:34:07.404Z,97.40
2019-06-20T22:36:40.290Z,97.10
2019-06-20T22:39:01.665Z,97.30
2019-06-20T22:41:29.710Z,97.20
2019-06-20T22:43:55.856Z,97.20
2019-06-20T22:46:22.038Z,97.00
2019-06-20T22:48:48.190Z,97.00
2019-06-20T22:51:14.351Z,96.70
2019-06-20T22:53:40.489Z,96.60
2019-06-20T22:56:06.652Z,96.80
2019-06-20T22:58:32.777Z,96.90
2019-06-20T23:00:58.929Z,96.30
2019-06-20T23:03:25.076Z,96.30
2019-06-20T23:05:51.243Z,96.00
2019-06-20T23:08:17.506Z,95.90
2019-06-20T23:10:43.661Z,95.50
2019-06-20T23:13:09.813Z,95.10
2019-06-20T23:15:36.958Z,95.30
2019-06-20T23:18:03.311Z,94.80
2019-06-20T23:20:29.452Z,95.00
2019-06-20T23:22:55.603Z,94.90
2019-06-20T23:25:21.764Z,94.80
2019-06-20T23:27:47.927Z,95.10
2019-06-20T23:30:14.561Z,94.90
2019-06-20T23:32:40.722Z,94.80
2019-06-20T23:35:07.379Z,94.90
2019-06-20T23:37:33.544Z,94.70
2019-06-20T23:39:59.781Z,94.50
2019-06-20T23:42:25.928Z,94.40
2019-06-20T23:44:52.320Z,94.40
2019-06-20T23:47:18.473Z,94.40
2019-06-20T23:49:44.631Z,94.50
2019-06-20T23:52:12.685Z,94.60
2019-06-20T23:54:38.825Z,94.60
2019-06-20T23:57:04.978Z,94.80
2019-06-20T23:59:31.122Z,94.80
